Aviation Digital Data Service (ADDS)

Output produced by METARs form (0936 UTC 21 April 2014)
found at http://aviationweather.gov/adds/metars/
 
KINT 210522Z 2106/2206 02004KT P6SM SKC